LEIB/IBZ METAR and TAF weather

Enter ICAO airport designator
Station Type Date Time Source
LEIB METAR 2021/01/27 14:30 UTC NOAA

LEIB 271430Z 29012KT 260V330 CAVOK 22/11 Q1020 NOSIG


Station Type Date Time Source
LEIB Decoded METAR 2021/01/27 14:30 UTC NOAA

Ibiza / Es Codola, Spain (LEIB) 38-52N 001-23E 12M
Jan 27, 2021 - 09:30 AM EST / 2021.01.27 1430 UTC
Wind: from the WNW (290 degrees) at 14 MPH (12 KT) (direction variable):0
Visibility: greater than 7 mile(s):0
Temperature: 71 F (22 C)
Dew Point: 51 F (11 C)
Relative Humidity: 49%
Pressure (altimeter): 30.12 in. Hg (1020 hPa)
ob: LEIB 271430Z 29012KT 260V330 CAVOK 22/11 Q1020 NOSIG
cycle: 14

Station Type Date Time Source
LEIB TAF 2021/01/27 15:30 UTC NOAA

TAF LEIB 271400Z 2715/2815 28010KT 9999 FEW020 TX18/2812Z TN11/2806Z
BECMG 2717/2719 VRB04KT
BECMG 2810/2812 24010KT PROB30
TEMPO 2806/2815 1500 BR BKN002

Example: see airport list